»·PEaware :: UPS972 KONT-KPDX

UPS972 :: KONT-KPDX

FLIGHT INFORMATION

Flight Status: Arrived
Operator:
United Parcel Service
More flights by this operator :: More flights under this callsign
Pilot: Mike D. (17473)
Aircraft: BOEING 757-200
(B752)
More flights by this aircraft type
Origin: KONT Ontario Intl
United States
Destination: KPDX Portland Intl
United States
More flights between these airports :: More routes between these airports
Route: +POM8 EHF KO45G GALLO TMBRS2
File this flight plan on PilotEdge
Remarks:
Altitude:
(Current/Filed)
340,000ft
Speed:
(Current/Filed)
425kts
Departed: 22-Dec-17 04:56 PM
Arrived: 22-Dec-17 07:06 PM
Distance/Time
Traveled:
729nm/2:09
Distance/Time
To Go:
Arrived

Flight Plot

Page will automatically refresh every two minutes.

Flight plan parsing failed; only flown route is shown


Map Options




Map Legend


Flown Route
Filed Route
Departure Airport
Arrival Airport
Navaid (VOR, NDB)
Fix

Horizontal Profiles

Position Reports

Time Latitude Longitude Heading Altitude Ground
Speed
22-Dec-17 16:30 34.051020 -117.577218 315 955ft 0kts
22-Dec-17 16:31 34.051020 -117.577218 315 955ft 0kts
22-Dec-17 16:32 34.051020 -117.577218 315 955ft 0kts
22-Dec-17 16:33 34.051020 -117.577218 315 955ft 0kts
22-Dec-17 16:34 34.051020 -117.577218 315 954ft 0kts
22-Dec-17 16:35 34.051020 -117.577218 315 954ft 0kts
22-Dec-17 16:36 34.051020 -117.577218 315 954ft 0kts
22-Dec-17 16:37 34.051020 -117.577218 315 954ft 0kts
22-Dec-17 16:38 34.051020 -117.577218 315 954ft 0kts
22-Dec-17 16:39 34.051020 -117.577218 315 954ft 0kts
22-Dec-17 16:40 34.051020 -117.577218 315 954ft 0kts
22-Dec-17 16:41 34.051020 -117.577218 315 954ft 0kts
22-Dec-17 16:42 34.051020 -117.577218 315 954ft 0kts
22-Dec-17 16:43 34.051020 -117.577218 315 954ft 0kts
22-Dec-17 16:44 34.051020 -117.577218 315 954ft 0kts
22-Dec-17 16:45 34.051020 -117.577218 315 954ft 0kts
22-Dec-17 16:46 34.051020 -117.577218 315 954ft 0kts
22-Dec-17 16:47 34.051020 -117.577218 315 954ft 0kts
22-Dec-17 16:48 34.051020 -117.577218 315 954ft 0kts
22-Dec-17 16:49 34.051020 -117.577218 315 954ft 0kts
22-Dec-17 16:50 34.051020 -117.577218 315 954ft 0kts
22-Dec-17 16:51 34.051020 -117.577218 315 954ft 0kts
22-Dec-17 16:52 34.051020 -117.577218 315 954ft 0kts
22-Dec-17 16:53 34.051020 -117.577218 315 954ft 0kts
22-Dec-17 16:54 34.051020 -117.577218 315 954ft 0kts
22-Dec-17 16:55 34.051020 -117.577218 315 954ft 0kts
22-Dec-17 16:56 34.051743 -117.577798 354 954ft 4kts
22-Dec-17 16:57 34.052370 -117.579006 270 954ft 7kts
22-Dec-17 16:58 34.052781 -117.582241 329 954ft 10kts
22-Dec-17 16:59 34.053677 -117.582362 358 954ft 0kts
22-Dec-17 17:00 34.053762 -117.582363 358 954ft 2kts
22-Dec-17 17:01 34.054950 -117.582831 270 954ft 0kts
22-Dec-17 17:02 34.055018 -117.616284 269 1250ft 175kts
22-Dec-17 17:03 34.053919 -117.677961 266 3296ft 204kts
22-Dec-17 17:04 34.060073 -117.755639 304 4994ft 263kts
22-Dec-17 17:05 34.104055 -117.824360 308 7905ft 263kts
22-Dec-17 17:06 34.150911 -117.893037 309 10246ft 275kts
22-Dec-17 17:07 34.207069 -117.975306 310 11286ft 341kts
22-Dec-17 17:08 34.268044 -118.064791 310 13884ft 350kts
22-Dec-17 17:09 34.330283 -118.156386 310 16273ft 358kts
22-Dec-17 17:10 34.393944 -118.250317 310 18508ft 366kts
22-Dec-17 17:11 34.459196 -118.346854 311 20622ft 374kts
22-Dec-17 17:12 34.525650 -118.444901 314 22514ft 381kts
22-Dec-17 17:13 34.614715 -118.514683 331 24209ft 387kts
22-Dec-17 17:14 34.709527 -118.577797 331 25866ft 394kts
22-Dec-17 17:15 34.806305 -118.642094 331 27363ft 400kts
22-Dec-17 17:16 34.902118 -118.705872 330 28730ft 405kts
22-Dec-17 17:17 35.000906 -118.771786 329 30151ft 406kts
22-Dec-17 17:18 35.099985 -118.838131 329 31293ft 409kts
22-Dec-17 17:19 35.198377 -118.904183 329 32486ft 409kts
22-Dec-17 17:20 35.297342 -118.970794 328 33680ft 406kts
22-Dec-17 17:21 35.395735 -119.037210 328 34311ft 405kts
22-Dec-17 17:22 35.495482 -119.101623 336 34320ft 408kts
22-Dec-17 17:23 35.602070 -119.148497 336 34339ft 409kts
22-Dec-17 17:24 35.708859 -119.195337 336 34343ft 408kts
22-Dec-17 17:25 35.815429 -119.242137 336 34341ft 408kts
22-Dec-17 17:26 35.922346 -119.289210 336 34340ft 408kts
22-Dec-17 17:27 36.029137 -119.336360 336 34340ft 409kts
22-Dec-17 17:28 36.133871 -119.382732 336 34356ft 409kts
22-Dec-17 17:29 36.240617 -119.430127 336 34355ft 409kts
22-Dec-17 17:30 36.347153 -119.477571 336 34353ft 408kts
22-Dec-17 17:31 36.454091 -119.525332 336 34352ft 409kts
22-Dec-17 17:32 36.560701 -119.573090 336 34348ft 408kts
22-Dec-17 17:33 36.667271 -119.620969 336 34346ft 408kts
22-Dec-17 17:34 36.772087 -119.668201 336 34351ft 408kts
22-Dec-17 17:35 36.878496 -119.716282 336 34345ft 408kts
22-Dec-17 17:36 36.985209 -119.764639 336 34344ft 408kts
22-Dec-17 17:37 37.091059 -119.812727 334 34346ft 404kts
22-Dec-17 17:38 37.194107 -119.859736 334 34360ft 404kts
22-Dec-17 17:39 37.299114 -119.907775 333 34359ft 404kts
22-Dec-17 17:40 37.404594 -119.956148 334 34360ft 404kts
22-Dec-17 17:41 37.509828 -120.003936 337 34355ft 406kts
22-Dec-17 17:42 37.617979 -120.043548 337 34358ft 406kts
22-Dec-17 17:43 37.726327 -120.083571 337 34359ft 407kts
22-Dec-17 17:44 37.834506 -120.123676 337 34350ft 406kts
22-Dec-17 17:45 37.942844 -120.163973 337 34331ft 406kts
22-Dec-17 17:46 38.050965 -120.204321 337 34332ft 407kts
22-Dec-17 17:47 38.157420 -120.244152 337 34338ft 406kts
22-Dec-17 17:48 38.265785 -120.284830 337 34337ft 406kts
22-Dec-17 17:49 38.373947 -120.325557 337 34333ft 406kts
22-Dec-17 17:50 38.481746 -120.366279 337 34328ft 406kts
22-Dec-17 17:51 38.590185 -120.407368 337 34326ft 406kts
22-Dec-17 17:52 38.698212 -120.448433 337 34329ft 406kts
22-Dec-17 17:53 38.806264 -120.489638 337 34338ft 406kts
22-Dec-17 17:54 38.914134 -120.530893 337 34331ft 404kts
22-Dec-17 17:55 39.020254 -120.571584 336 34311ft 397kts
22-Dec-17 17:56 39.124183 -120.611621 335 34315ft 396kts
22-Dec-17 17:57 39.228254 -120.651804 335 34316ft 395kts
22-Dec-17 17:58 39.332333 -120.692118 335 34327ft 395kts
22-Dec-17 17:59 39.437153 -120.732844 335 34325ft 394kts
22-Dec-17 18:00 39.542262 -120.773811 335 34325ft 395kts
22-Dec-17 18:01 39.647006 -120.814762 335 34325ft 394kts
22-Dec-17 18:02 39.751850 -120.855883 335 34319ft 394kts
22-Dec-17 18:03 39.856561 -120.897086 335 34316ft 395kts
22-Dec-17 18:04 39.961111 -120.938353 335 34298ft 394kts
22-Dec-17 18:05 40.065735 -120.979784 335 34290ft 395kts
22-Dec-17 18:06 40.169561 -121.021035 335 34297ft 398kts
22-Dec-17 18:07 40.275486 -121.063253 334 34294ft 400kts
22-Dec-17 18:08 40.381765 -121.105747 334 34292ft 402kts
22-Dec-17 18:09 40.488878 -121.148720 334 34290ft 405kts
22-Dec-17 18:10 40.596812 -121.192172 334 34289ft 408kts
22-Dec-17 18:11 40.705081 -121.235895 334 34297ft 408kts
22-Dec-17 18:12 40.813223 -121.279724 334 34310ft 408kts
22-Dec-17 18:13 40.921384 -121.323709 334 34322ft 408kts
22-Dec-17 18:14 41.029216 -121.367694 334 34314ft 406kts
22-Dec-17 18:15 41.134150 -121.410651 333 34281ft 405kts
22-Dec-17 18:16 41.241695 -121.454852 333 34278ft 405kts
22-Dec-17 18:17 41.349045 -121.499108 333 34271ft 405kts
22-Dec-17 18:18 41.456283 -121.543472 333 34265ft 405kts
22-Dec-17 18:19 41.545573 -121.580531 333 34263ft 405kts
22-Dec-17 18:20 41.670752 -121.632659 333 34262ft 405kts
22-Dec-17 18:21 41.776896 -121.677028 332 34278ft 404kts
22-Dec-17 18:22 41.883986 -121.721945 333 34276ft 404kts
22-Dec-17 18:23 41.991068 -121.767023 332 34265ft 406kts
22-Dec-17 18:24 42.080532 -121.804805 332 34264ft 406kts
22-Dec-17 18:25 42.204587 -121.857382 332 34269ft 406kts
22-Dec-17 18:26 42.294416 -121.895587 332 34268ft 406kts
22-Dec-17 18:27 42.401712 -121.941371 332 34266ft 405kts
22-Dec-17 18:28 42.509258 -121.987429 332 34265ft 406kts
22-Dec-17 18:29 42.616356 -122.033459 332 34263ft 406kts
22-Dec-17 18:30 42.723922 -122.079860 332 34262ft 406kts
22-Dec-17 18:31 42.831014 -122.126223 332 34260ft 406kts
22-Dec-17 18:32 42.937987 -122.173257 331 34274ft 401kts
22-Dec-17 18:33 43.042461 -122.222295 330 34308ft 395kts
22-Dec-17 18:34 43.144937 -122.270573 330 34317ft 396kts
22-Dec-17 18:35 43.248684 -122.319583 330 34321ft 395kts
22-Dec-17 18:36 43.352341 -122.368724 330 34337ft 395kts
22-Dec-17 18:37 43.456082 -122.418093 330 34339ft 395kts
22-Dec-17 18:38 43.559787 -122.467686 330 34336ft 395kts
22-Dec-17 18:39 43.663370 -122.517459 330 32723ft 401kts
22-Dec-17 18:40 43.769089 -122.568343 330 30647ft 399kts
22-Dec-17 18:41 43.870369 -122.617225 330 28553ft 377kts
22-Dec-17 18:42 43.967212 -122.664265 330 26499ft 366kts
22-Dec-17 18:43 44.061517 -122.710186 330 24513ft 357kts
22-Dec-17 18:44 44.149510 -122.748526 345 22657ft 361kts
22-Dec-17 18:45 44.249843 -122.742803 352 20862ft 355kts
22-Dec-17 18:46 44.345333 -122.733822 353 19378ft 335kts
22-Dec-17 18:47 44.436606 -122.724892 353 18128ft 328kts
22-Dec-17 18:48 44.526891 -122.715949 353 16947ft 323kts
22-Dec-17 18:49 44.615485 -122.707120 354 15768ft 318kts
22-Dec-17 18:50 44.702955 -122.698338 354 14583ft 313kts
22-Dec-17 18:51 44.789254 -122.689647 355 13394ft 309kts
22-Dec-17 18:52 44.874056 -122.681115 355 12205ft 304kts
22-Dec-17 18:53 44.956781 -122.672717 355 11289ft 284kts
22-Dec-17 18:54 45.032960 -122.665061 357 10462ft 273kts
22-Dec-17 18:55 45.106451 -122.657610 359 9285ft 269kts
22-Dec-17 18:56 45.180341 -122.650068 0 8236ft 264kts
22-Dec-17 18:57 45.252745 -122.646374 341 7257ft 256kts
22-Dec-17 18:58 45.316964 -122.680201 337 6981ft 226kts
22-Dec-17 18:59 45.375178 -122.711950 337 6457ft 223kts
22-Dec-17 19:00 45.431678 -122.742944 338 5749ft 212kts
22-Dec-17 19:01 45.486582 -122.773145 338 5226ft 211kts
22-Dec-17 19:02 45.541246 -122.803276 338 4936ft 209kts
22-Dec-17 19:03 45.586128 -122.845058 304 4560ft 192kts
22-Dec-17 19:04 45.614527 -122.906411 319 3986ft 181kts
22-Dec-17 19:05 45.659563 -122.893308 25 3402ft 165kts
22-Dec-17 19:06 45.692325 -122.856003 95 3010ft 164kts
22-Dec-17 19:07 45.666982 -122.801877 121 2866ft 165kts
22-Dec-17 19:08 45.646619 -122.753250 119 2122ft 136kts
22-Dec-17 19:09 45.628213 -122.706417 118 1401ft 134kts
22-Dec-17 19:10 45.610270 -122.660270 118 683ft 133kts
22-Dec-17 19:11 45.592395 -122.614351 118 42ft 126kts
22-Dec-17 19:12 45.584224 -122.593411 120 40ft 20kts
22-Dec-17 19:13 45.582861 -122.593039 261 40ft 5kts
22-Dec-17 19:14 45.585518 -122.599947 298 40ft 23kts
22-Dec-17 19:15 45.587921 -122.606749 240 40ft 12kts
22-Dec-17 19:16 45.586588 -122.606633 91 40ft 6kts
22-Dec-17 19:17 45.585708 -122.605395 179 40ft 0kts
22-Dec-17 19:18 45.585709 -122.605395 179 40ft 0kts

Navigation Log

Ident Type
Flight plan parsing failed, navigation log unavailable